Lleida, Spain

12:09 AM CET on December 22, 2014 (GMT +0100)
Pardinyes,Lleida | Change Station
CLOSE
Current Station
Personal Weather Station
Location: Lleida, LLEIDA
Elevation: 557 ft
Nearby Weather Stations

Elev 557 ft 41.62 °N, 0.64 °E | Updated 43 seconds ago

Clear
Clear
43.3 °F
Feels Like 43 °F
N
2.2
Wind Variable Wind from NNE
Gusts 6.9 mph

Today
High -- | Low -- °F
--% Chance of Precip.
Yesterday
High -- | Low -- °F
Precip. -- in
8:21 AM 5:30 PM
Waning Crescent, 0% visible
Pressure 30.48 in
Visibility -9999.0 miles
Clouds
Windchill 43 °F
Dew Point 42 °F
Humidity 93%
Rainfall 0.00 in
Snow Depth Not available.
UV Not available.
Pollen Not available.
Air Quality Not available.
Flu Activity Not available.
METAR LERS 212100Z 02007KT CAVOK 06/05 Q1032

More Conditions Fewer Conditions

Pressure 30.48 in
Visibility -9999.0 miles
Clouds
Windchill 43 °F
Dew Point 42 °F
Humidity 93%
Rainfall 0.00 in
Snow Depth Not available.
UV Not available.
Pollen Not available.
Air Quality Not available.
Flu Activity Not available.
METAR LERS 212100Z 02007KT CAVOK 06/05 Q1032

More Conditions Fewer Conditions

10-Day Weather Forecast

Almanac

Astronomy

Dec. 22, 2014 Rise Set
Actual Time
Civil Twilight
Nautical Twilight
Astronomical Twilight
Moon
Length Of Visible Light
Length of Day
Tomorrow will be .
, % of the Moon is Illuminated

Today's Extremes

Country Highs Country Lows

Community

WunderPhotos

Upload Photos

1,779,497 photos uploaded!

WunderBlogs® & News

Nearby

Air Quality

  Air Quality AQ Index Pollutant
Not available.

Snow Depth

Station Depth Elevation

Earthquake Activity

City Distance Mag. Time & Date
Minimum magnitude displayed is 2.5.

Coastal Water Temperatures

Place Temperature

Nearby Weather Stations